Terminal Aerodrome Forecast
Issued by NWS Wakefield, VA

Home | Current Version | Previous Version | Text Only | Print | Product List | Glossary On
Versions: 1 2 3 4 5 6 7 8 9 10 11 12 13 14 15 16 17 18 19 20
753
FTUS41 KAKQ 301736
TAFORF
TAF
KORF 301736Z 3018/3118 12005KT 5SM -RA BR SCT025 OVC040
     FM302000 12005KT 5SM -RA BR OVC025
     FM310000 14005KT P6SM VCSH OVC025
     FM310400 VRB03KT 4SM BR OVC030
     FM311500 04005KT P6SM OVC035=

USA.gov is the U.S. government's official web portal to all federal, state and local government web resources and services.